Terminal Aerodrome Forecast
Issued by NWS

Home | Current Version | Previous Version | Graphics & Text | Print | Product List | Glossary Off
Versions: 1 2 3 4 5 6 7 8 9 10 11 12 13 14 15 16

000
FTUS43 KDDC 062320
TAFGCK
TAF
KGCK 062320Z 0700/0724 VRB05KT P6SM BKN200
     FM070600 12015G25KT P6SM OVC050
     FM071200 08018G28KT P6SM OVC040
     FM071600 04017G27KT P6SM VCSH OVC020
     FM072000 03013KT P6SM OVC050=

USA.gov is the U.S. government's official web portal to all federal, state and local government web resources and services.